13:20
Airports
History
Links
Donate
Help keep this website running!
PayPal
Bitcoin
This page is community maintained. The information is intended for PC simulator navigation or reference.
Always use approved charts for navigation.
75Z
Orange Hill
Orange Hill (75Z)
Alaska, United States
4
Lat/Lng:62° 12' 42.6" N / 142° 51' 15.66" W
62.211833 / -142.854349
Elevation:2875'ft / 876mMSL
ID / ICAO:75Z
Runways:1
Longest:14-32
Gravel 483m / 1,584ft
Nearby Weather02:46 GMT 2014-10-01
Nearby weather at PABN, Devils Mountain Lodge located 13.9 nautical miles from 75Z
Altimeter: 30.14
Visibility: 15.0 statute miles
Wind: 9 knots (from 190°)
Temp: -3°c / 27°f
Humidity: 86.0%

METAR: PABN 010246Z 19009KT 15SM SCT030 BKN060 BKN090 M03/M05 A3014 RMK MAX 3.0 NOSPECI LAST

(Powered by phpweather)
Runway 14 / 32
Dimensions:482.8 x 18.3m 1584' x 60'ft
Surface:Gravel
Runway 14 [A]Runway 32 [B]
Heading:167°TH 347°TH
Lat:
Lng:
62° 12' 50.13"N
142° 51' 19.09"W
62° 12' 35.07"N
142° 51' 12.22"W
User Notes and Comments
62° 12' 42.6" N / 142° 51' 15.66" W
Distance To
Airport ID:
Nearby Airports
4 Devils Mountain Lodge 13.9 NM
PABN ( WX ) NNW 340°
(R) Sportsmens Paradise 24.1 NM
9AK0 NNW 329°
4 Chisana 27.8 NM
CZN ESE 110°
4 Duffys Tavern 49.1 NM
PADT ( WX ) NW 316°
4 Mc Carthy 53.6 NM
PAMX ( WX ) S 181°
4 Glacier Creek 54.5 NM
KGZ SSE 163°
4 Horsfeld 55.9 NM
4Z5 ESE 104°
VFR Chart
Flight Planning at SkyVector.com